Airfield :







YOU CAN JOIN US ON...

 
LOGIN :

Register | Disclaimer

   EN    FR    IT 

 









Legend :    VFR   Marginal VFR   IFR   Intensive IFR   Very Intensive IFR
Visi :
Ceiling :
>= 8 km
>= 3000ft
5 to 8 km
1000 to 3000 ft
1500m to 5 km
500 to 1000 ft
800 to 1500m
200 to 500 ft
< 800m
< 200 ft
Symbols :   Thunderstorms  Fog  Heavy snow  Heavy precipitations  Wind > 20 kt







- Airport Elevation : 477 ft
- IATA code : YHZ


CYHZ - Halifax Stanfield Int.

CURRENT METAR :
  • 222000Z 19012KT 15SM FEW041 BKN270 22/13 A3001 RMK SC1CS6 SLP166 DENSITY ALT 1300FT

EXPIRED METARs :
  • 221900Z 22014G20KT 15SM FEW040 BKN280 23/13 A3002 RMK CU1CS6 SLP169 DENSITY ALT 1400FT
  • 221800Z 24012G17KT 15SM FEW040 BKN280 23/14 A3004 RMK CU2CI5 SLP175 DENSITY ALT 1400FT

TAF TAF CYHZ
Valid from the 22 at 18:00 until the 23 at 18:00 UTC


221742Z 2218/2318 24010G20KT P6SM FEW240
FM230500 22010KT P6SM FEW120
FM231500 23010G20KT P6SM BKN240 RMK NXT FCST BY 222100Z
No reported NOTAMs for that airfield.



MET'MAP, your aeronautical weather chart ! - Copyright ORBIFLY December 2007 - Disclaimer

ORBIFLY MET'MAP TEAM :

Programming & Development : Alexandra Zaïnal
Concept & Development : Baudouin d'Aumeries
Co-Development & Prog : Marc-Olivier Méhu
Technical & hardware support : Manuel Goepfert

Contact : metmap@orbifly.com




SOURCES & CREDITS :

   NOAA